sensor_id;sensor_type;location;lat;lon;timestamp;P1;durP1;ratioP1;P2;durP2;ratioP2
75246;SDS011;63844;50.042;19.224;2022-10-23T00:01:15;18.00;;;10.70;;
75246;SDS011;63844;50.042;19.224;2022-10-23T00:03:42;21.00;;;10.80;;
75246;SDS011;63844;50.042;19.224;2022-10-23T00:06:10;17.50;;;9.70;;
75246;SDS011;63844;50.042;19.224;2022-10-23T00:08:38;19.10;;;11.30;;
75246;SDS011;63844;50.042;19.224;2022-10-23T00:11:10;22.90;;;11.90;;
75246;SDS011;63844;50.042;19.224;2022-10-23T00:13:38;21.60;;;12.10;;
75246;SDS011;63844;50.042;19.224;2022-10-23T00:16:05;19.60;;;11.20;;
75246;SDS011;63844;50.042;19.224;2022-10-23T00:18:33;21.50;;;11.60;;
75246;SDS011;63844;50.042;19.224;2022-10-23T00:21:02;19.30;;;10.10;;
75246;SDS011;63844;50.042;19.224;2022-10-23T00:23:29;22.80;;;10.90;;
75246;SDS011;63844;50.042;19.224;2022-10-23T00:25:56;20.60;;;10.30;;
75246;SDS011;63844;50.042;19.224;2022-10-23T00:28:22;20.40;;;11.50;;
75246;SDS011;63844;50.042;19.224;2022-10-23T00:30:49;21.10;;;10.70;;
75246;SDS011;63844;50.042;19.224;2022-10-23T00:33:15;22.30;;;12.20;;
75246;SDS011;63844;50.042;19.224;2022-10-23T00:35:42;23.70;;;11.50;;
75246;SDS011;63844;50.042;19.224;2022-10-23T00:38:09;22.20;;;10.40;;
75246;SDS011;63844;50.042;19.224;2022-10-23T00:40:36;17.40;;;9.60;;
75246;SDS011;63844;50.042;19.224;2022-10-23T00:43:04;18.90;;;10.10;;
75246;SDS011;63844;50.042;19.224;2022-10-23T00:45:32;20.10;;;11.00;;
75246;SDS011;63844;50.042;19.224;2022-10-23T00:47:59;16.50;;;10.30;;
75246;SDS011;63844;50.042;19.224;2022-10-23T00:50:28;19.70;;;10.40;;
75246;SDS011;63844;50.042;19.224;2022-10-23T00:52:58;19.40;;;9.70;;
75246;SDS011;63844;50.042;19.224;2022-10-23T00:55:27;15.40;;;8.90;;
75246;SDS011;63844;50.042;19.224;2022-10-23T00:57:55;17.40;;;10.30;;
75246;SDS011;63844;50.042;19.224;2022-10-23T01:00:26;20.00;;;10.50;;
75246;SDS011;63844;50.042;19.224;2022-10-23T01:02:55;16.60;;;10.20;;
75246;SDS011;63844;50.042;19.224;2022-10-23T01:05:29;13.10;;;7.40;;
75246;SDS011;63844;50.042;19.224;2022-10-23T01:08:05;19.00;;;9.60;;
75246;SDS011;63844;50.042;19.224;2022-10-23T01:10:53;19.20;;;10.80;;
75246;SDS011;63844;50.042;19.224;2022-10-23T01:13:36;16.30;;;9.00;;
75246;SDS011;63844;50.042;19.224;2022-10-23T01:16:17;19.50;;;10.00;;
75246;SDS011;63844;50.042;19.224;2022-10-23T01:19:06;18.90;;;9.60;;
75246;SDS011;63844;50.042;19.224;2022-10-23T01:29:52;19.50;;;9.80;;
75246;SDS011;63844;50.042;19.224;2022-10-23T01:32:41;16.60;;;8.80;;
75246;SDS011;63844;50.042;19.224;2022-10-23T01:35:15;16.30;;;9.30;;
75246;SDS011;63844;50.042;19.224;2022-10-23T01:40:48;20.00;;;11.00;;
75246;SDS011;63844;50.042;19.224;2022-10-23T01:43:24;17.00;;;10.10;;
75246;SDS011;63844;50.042;19.224;2022-10-23T01:45:57;18.40;;;9.60;;
75246;SDS011;63844;50.042;19.224;2022-10-23T01:48:27;15.40;;;8.80;;
75246;SDS011;63844;50.042;19.224;2022-10-23T01:50:57;15.30;;;9.00;;
75246;SDS011;63844;50.042;19.224;2022-10-23T01:53:29;18.80;;;10.70;;
75246;SDS011;63844;50.042;19.224;2022-10-23T01:55:59;16.70;;;9.10;;
75246;SDS011;63844;50.042;19.224;2022-10-23T01:58:28;17.60;;;10.20;;
75246;SDS011;63844;50.042;19.224;2022-10-23T02:00:58;20.10;;;10.70;;
75246;SDS011;63844;50.042;19.224;2022-10-23T02:03:29;16.30;;;9.00;;
75246;SDS011;63844;50.042;19.224;2022-10-23T02:05:58;17.50;;;9.20;;
75246;SDS011;63844;50.042;19.224;2022-10-23T02:08:24;16.40;;;9.00;;
75246;SDS011;63844;50.042;19.224;2022-10-23T02:10:55;15.40;;;8.30;;
75246;SDS011;63844;50.042;19.224;2022-10-23T02:13:33;15.20;;;8.60;;
75246;SDS011;63844;50.042;19.224;2022-10-23T02:16:07;15.70;;;9.10;;
75246;SDS011;63844;50.042;19.224;2022-10-23T02:21:16;15.70;;;8.80;;
75246;SDS011;63844;50.042;19.224;2022-10-23T02:23:48;13.50;;;6.90;;
75246;SDS011;63844;50.042;19.224;2022-10-23T02:26:27;14.60;;;7.90;;
75246;SDS011;63844;50.042;19.224;2022-10-23T02:29:06;14.80;;;8.20;;
75246;SDS011;63844;50.042;19.224;2022-10-23T02:31:39;15.60;;;9.20;;
75246;SDS011;63844;50.042;19.224;2022-10-23T02:34:06;14.80;;;8.20;;
75246;SDS011;63844;50.042;19.224;2022-10-23T02:36:32;12.60;;;7.40;;
75246;SDS011;63844;50.042;19.224;2022-10-23T02:38:59;16.60;;;8.40;;
75246;SDS011;63844;50.042;19.224;2022-10-23T02:49:50;16.70;;;8.40;;
75246;SDS011;63844;50.042;19.224;2022-10-23T02:52:46;16.20;;;8.80;;
75246;SDS011;63844;50.042;19.224;2022-10-23T03:01:14;13.80;;;8.00;;
75246;SDS011;63844;50.042;19.224;2022-10-23T03:03:44;14.50;;;7.90;;
75246;SDS011;63844;50.042;19.224;2022-10-23T03:06:16;17.60;;;8.80;;
75246;SDS011;63844;50.042;19.224;2022-10-23T03:08:43;9.60;;;5.70;;
75246;SDS011;63844;50.042;19.224;2022-10-23T03:11:14;17.10;;;9.50;;
75246;SDS011;63844;50.042;19.224;2022-10-23T03:13:40;14.40;;;8.10;;
75246;SDS011;63844;50.042;19.224;2022-10-23T03:16:06;15.90;;;8.00;;
75246;SDS011;63844;50.042;19.224;2022-10-23T03:18:33;15.20;;;7.80;;
75246;SDS011;63844;50.042;19.224;2022-10-23T03:20:59;14.40;;;8.10;;
75246;SDS011;63844;50.042;19.224;2022-10-23T03:23:25;14.70;;;7.90;;
75246;SDS011;63844;50.042;19.224;2022-10-23T03:25:52;12.40;;;7.60;;
75246;SDS011;63844;50.042;19.224;2022-10-23T03:28:19;14.40;;;7.60;;
75246;SDS011;63844;50.042;19.224;2022-10-23T03:30:45;18.90;;;8.10;;
75246;SDS011;63844;50.042;19.224;2022-10-23T03:33:11;15.10;;;8.60;;
75246;SDS011;63844;50.042;19.224;2022-10-23T03:35:38;12.80;;;7.40;;
75246;SDS011;63844;50.042;19.224;2022-10-23T03:38:04;13.90;;;8.20;;
75246;SDS011;63844;50.042;19.224;2022-10-23T03:40:31;15.20;;;8.60;;
75246;SDS011;63844;50.042;19.224;2022-10-23T03:42:57;15.70;;;8.80;;
75246;SDS011;63844;50.042;19.224;2022-10-23T03:45:23;16.00;;;8.60;;
75246;SDS011;63844;50.042;19.224;2022-10-23T03:47:50;15.80;;;9.20;;
75246;SDS011;63844;50.042;19.224;2022-10-23T03:50:17;17.90;;;10.00;;
75246;SDS011;63844;50.042;19.224;2022-10-23T03:52:44;17.50;;;9.70;;
75246;SDS011;63844;50.042;19.224;2022-10-23T03:55:10;16.20;;;9.90;;
75246;SDS011;63844;50.042;19.224;2022-10-23T03:57:37;17.20;;;8.80;;
75246;SDS011;63844;50.042;19.224;2022-10-23T04:00:04;18.10;;;10.00;;
75246;SDS011;63844;50.042;19.224;2022-10-23T04:02:33;23.60;;;13.80;;
75246;SDS011;63844;50.042;19.224;2022-10-23T04:04:59;26.00;;;15.90;;
75246;SDS011;63844;50.042;19.224;2022-10-23T04:09:52;19.00;;;10.50;;
75246;SDS011;63844;50.042;19.224;2022-10-23T04:12:19;17.50;;;10.30;;
75246;SDS011;63844;50.042;19.224;2022-10-23T04:14:45;19.10;;;9.90;;
75246;SDS011;63844;50.042;19.224;2022-10-23T04:17:11;15.70;;;8.90;;
75246;SDS011;63844;50.042;19.224;2022-10-23T04:19:37;16.50;;;9.10;;
75246;SDS011;63844;50.042;19.224;2022-10-23T04:22:04;18.50;;;9.60;;
75246;SDS011;63844;50.042;19.224;2022-10-23T04:24:30;17.20;;;9.00;;
75246;SDS011;63844;50.042;19.224;2022-10-23T04:26:56;18.50;;;10.30;;
75246;SDS011;63844;50.042;19.224;2022-10-23T04:29:23;17.50;;;9.40;;
75246;SDS011;63844;50.042;19.224;2022-10-23T04:31:49;19.50;;;10.30;;
75246;SDS011;63844;50.042;19.224;2022-10-23T04:34:17;19.20;;;10.30;;
75246;SDS011;63844;50.042;19.224;2022-10-23T04:36:44;18.50;;;9.80;;
75246;SDS011;63844;50.042;19.224;2022-10-23T04:39:10;16.30;;;9.40;;
75246;SDS011;63844;50.042;19.224;2022-10-23T04:41:37;17.70;;;8.90;;
75246;SDS011;63844;50.042;19.224;2022-10-23T04:44:04;16.90;;;9.80;;
75246;SDS011;63844;50.042;19.224;2022-10-23T04:46:30;14.70;;;8.90;;
75246;SDS011;63844;50.042;19.224;2022-10-23T04:48:56;14.70;;;8.50;;
75246;SDS011;63844;50.042;19.224;2022-10-23T04:51:23;15.70;;;9.40;;
75246;SDS011;63844;50.042;19.224;2022-10-23T04:53:49;14.70;;;8.50;;
75246;SDS011;63844;50.042;19.224;2022-10-23T04:56:15;15.70;;;8.50;;
75246;SDS011;63844;50.042;19.224;2022-10-23T04:58:41;15.80;;;9.30;;
75246;SDS011;63844;50.042;19.224;2022-10-23T05:01:08;14.50;;;9.00;;
75246;SDS011;63844;50.042;19.224;2022-10-23T05:03:36;15.80;;;8.60;;
75246;SDS011;63844;50.042;19.224;2022-10-23T05:06:03;21.20;;;11.70;;
75246;SDS011;63844;50.042;19.224;2022-10-23T05:08:30;17.90;;;10.00;;
75246;SDS011;63844;50.042;19.224;2022-10-23T05:10:56;20.00;;;10.30;;
75246;SDS011;63844;50.042;19.224;2022-10-23T05:13:23;16.80;;;9.20;;
75246;SDS011;63844;50.042;19.224;2022-10-23T05:15:49;21.30;;;12.10;;
75246;SDS011;63844;50.042;19.224;2022-10-23T05:18:19;24.20;;;13.10;;
75246;SDS011;63844;50.042;19.224;2022-10-23T05:20:51;19.30;;;11.40;;
75246;SDS011;63844;50.042;19.224;2022-10-23T05:23:22;20.20;;;11.00;;
75246;SDS011;63844;50.042;19.224;2022-10-23T05:25:50;21.20;;;11.80;;
75246;SDS011;63844;50.042;19.224;2022-10-23T05:28:16;21.70;;;11.80;;
75246;SDS011;63844;50.042;19.224;2022-10-23T05:30:43;20.60;;;10.50;;
75246;SDS011;63844;50.042;19.224;2022-10-23T05:33:10;21.30;;;11.80;;
75246;SDS011;63844;50.042;19.224;2022-10-23T05:35:37;20.80;;;11.40;;
75246;SDS011;63844;50.042;19.224;2022-10-23T05:38:04;19.50;;;11.30;;
75246;SDS011;63844;50.042;19.224;2022-10-23T05:40:32;21.60;;;11.30;;
75246;SDS011;63844;50.042;19.224;2022-10-23T05:42:58;19.10;;;10.90;;
75246;SDS011;63844;50.042;19.224;2022-10-23T05:45:25;21.70;;;11.70;;
75246;SDS011;63844;50.042;19.224;2022-10-23T05:47:51;20.70;;;11.00;;
75246;SDS011;63844;50.042;19.224;2022-10-23T05:50:18;22.10;;;12.60;;
75246;SDS011;63844;50.042;19.224;2022-10-23T05:52:45;20.80;;;12.60;;
75246;SDS011;63844;50.042;19.224;2022-10-23T05:55:13;21.70;;;12.20;;
75246;SDS011;63844;50.042;19.224;2022-10-23T05:57:40;18.50;;;11.10;;
75246;SDS011;63844;50.042;19.224;2022-10-23T06:00:07;21.50;;;13.20;;
75246;SDS011;63844;50.042;19.224;2022-10-23T06:02:34;28.90;;;12.70;;
75246;SDS011;63844;50.042;19.224;2022-10-23T06:05:01;24.70;;;13.60;;
75246;SDS011;63844;50.042;19.224;2022-10-23T06:07:27;23.00;;;13.80;;
75246;SDS011;63844;50.042;19.224;2022-10-23T06:09:54;27.90;;;14.50;;
75246;SDS011;63844;50.042;19.224;2022-10-23T06:12:21;24.80;;;13.20;;
75246;SDS011;63844;50.042;19.224;2022-10-23T06:14:48;24.50;;;13.10;;
75246;SDS011;63844;50.042;19.224;2022-10-23T06:17:14;21.60;;;11.20;;
75246;SDS011;63844;50.042;19.224;2022-10-23T06:22:08;21.50;;;10.00;;
75246;SDS011;63844;50.042;19.224;2022-10-23T06:24:35;23.50;;;11.80;;
75246;SDS011;63844;50.042;19.224;2022-10-23T06:27:01;23.20;;;12.30;;
75246;SDS011;63844;50.042;19.224;2022-10-23T06:29:27;20.40;;;11.90;;
75246;SDS011;63844;50.042;19.224;2022-10-23T06:31:54;17.90;;;9.50;;
75246;SDS011;63844;50.042;19.224;2022-10-23T06:34:20;19.30;;;10.10;;
75246;SDS011;63844;50.042;19.224;2022-10-23T06:36:46;20.20;;;11.30;;
75246;SDS011;63844;50.042;19.224;2022-10-23T06:39:13;20.20;;;10.40;;
75246;SDS011;63844;50.042;19.224;2022-10-23T06:41:39;18.50;;;9.80;;
75246;SDS011;63844;50.042;19.224;2022-10-23T06:44:07;18.90;;;10.40;;
75246;SDS011;63844;50.042;19.224;2022-10-23T06:46:35;20.40;;;10.60;;
75246;SDS011;63844;50.042;19.224;2022-10-23T06:49:02;19.60;;;10.40;;
75246;SDS011;63844;50.042;19.224;2022-10-23T06:51:29;30.60;;;13.40;;
75246;SDS011;63844;50.042;19.224;2022-10-23T06:53:55;22.70;;;11.20;;
75246;SDS011;63844;50.042;19.224;2022-10-23T06:56:22;18.10;;;9.20;;
75246;SDS011;63844;50.042;19.224;2022-10-23T06:58:50;18.70;;;9.70;;
75246;SDS011;63844;50.042;19.224;2022-10-23T07:01:16;18.20;;;9.50;;
75246;SDS011;63844;50.042;19.224;2022-10-23T07:03:43;20.40;;;11.00;;
75246;SDS011;63844;50.042;19.224;2022-10-23T07:06:10;19.00;;;10.50;;
75246;SDS011;63844;50.042;19.224;2022-10-23T07:08:37;16.80;;;8.90;;
75246;SDS011;63844;50.042;19.224;2022-10-23T07:11:04;19.50;;;9.30;;
75246;SDS011;63844;50.042;19.224;2022-10-23T07:13:35;17.40;;;8.60;;
75246;SDS011;63844;50.042;19.224;2022-10-23T07:18:44;18.10;;;9.80;;
75246;SDS011;63844;50.042;19.224;2022-10-23T07:21:11;18.60;;;9.90;;
75246;SDS011;63844;50.042;19.224;2022-10-23T07:23:38;19.10;;;10.00;;
75246;SDS011;63844;50.042;19.224;2022-10-23T07:28:36;20.10;;;9.50;;
75246;SDS011;63844;50.042;19.224;2022-10-23T07:31:02;17.40;;;9.30;;
75246;SDS011;63844;50.042;19.224;2022-10-23T07:33:29;21.30;;;9.50;;
75246;SDS011;63844;50.042;19.224;2022-10-23T07:35:55;19.50;;;9.70;;
75246;SDS011;63844;50.042;19.224;2022-10-23T07:38:21;17.50;;;9.30;;
75246;SDS011;63844;50.042;19.224;2022-10-23T07:40:48;16.50;;;8.20;;
75246;SDS011;63844;50.042;19.224;2022-10-23T07:43:14;18.60;;;10.20;;
75246;SDS011;63844;50.042;19.224;2022-10-23T07:45:42;18.00;;;8.50;;
75246;SDS011;63844;50.042;19.224;2022-10-23T07:48:11;18.90;;;9.00;;
75246;SDS011;63844;50.042;19.224;2022-10-23T07:50:37;23.30;;;9.20;;
75246;SDS011;63844;50.042;19.224;2022-10-23T07:53:04;17.60;;;9.40;;
75246;SDS011;63844;50.042;19.224;2022-10-23T07:55:30;18.70;;;10.10;;
75246;SDS011;63844;50.042;19.224;2022-10-23T07:57:56;15.40;;;8.00;;
75246;SDS011;63844;50.042;19.224;2022-10-23T08:00:22;21.40;;;9.40;;
75246;SDS011;63844;50.042;19.224;2022-10-23T08:02:49;18.20;;;10.30;;
75246;SDS011;63844;50.042;19.224;2022-10-23T08:05:17;22.20;;;11.10;;
75246;SDS011;63844;50.042;19.224;2022-10-23T08:07:44;18.90;;;10.40;;
75246;SDS011;63844;50.042;19.224;2022-10-23T08:10:10;18.20;;;10.20;;
75246;SDS011;63844;50.042;19.224;2022-10-23T08:12:37;19.90;;;9.90;;
75246;SDS011;63844;50.042;19.224;2022-10-23T08:15:03;16.20;;;9.00;;
75246;SDS011;63844;50.042;19.224;2022-10-23T08:17:30;30.60;;;12.10;;
75246;SDS011;63844;50.042;19.224;2022-10-23T08:19:56;20.10;;;10.20;;
75246;SDS011;63844;50.042;19.224;2022-10-23T08:22:23;18.90;;;9.20;;
75246;SDS011;63844;50.042;19.224;2022-10-23T08:24:49;17.20;;;9.70;;
75246;SDS011;63844;50.042;19.224;2022-10-23T08:27:15;15.90;;;7.60;;
75246;SDS011;63844;50.042;19.224;2022-10-23T08:29:41;15.80;;;8.90;;
75246;SDS011;63844;50.042;19.224;2022-10-23T08:32:08;15.30;;;8.40;;
75246;SDS011;63844;50.042;19.224;2022-10-23T08:34:34;15.00;;;8.60;;
75246;SDS011;63844;50.042;19.224;2022-10-23T08:37:02;14.60;;;7.90;;
75246;SDS011;63844;50.042;19.224;2022-10-23T08:39:29;14.00;;;8.10;;
75246;SDS011;63844;50.042;19.224;2022-10-23T08:41:55;18.80;;;9.10;;
75246;SDS011;63844;50.042;19.224;2022-10-23T08:46:49;15.00;;;7.90;;
75246;SDS011;63844;50.042;19.224;2022-10-23T08:49:35;18.30;;;9.50;;
75246;SDS011;63844;50.042;19.224;2022-10-23T08:52:43;17.30;;;8.60;;
75246;SDS011;63844;50.042;19.224;2022-10-23T08:58:08;13.70;;;6.90;;
75246;SDS011;63844;50.042;19.224;2022-10-23T09:00:43;11.80;;;6.10;;
75246;SDS011;63844;50.042;19.224;2022-10-23T09:03:14;13.90;;;7.30;;
75246;SDS011;63844;50.042;19.224;2022-10-23T09:11:42;16.20;;;7.60;;
75246;SDS011;63844;50.042;19.224;2022-10-23T09:19:44;9.80;;;4.60;;
75246;SDS011;63844;50.042;19.224;2022-10-23T09:22:11;16.80;;;7.80;;
75246;SDS011;63844;50.042;19.224;2022-10-23T09:24:41;15.00;;;7.50;;
75246;SDS011;63844;50.042;19.224;2022-10-23T09:27:09;11.60;;;6.20;;
75246;SDS011;63844;50.042;19.224;2022-10-23T09:29:48;16.30;;;8.30;;
75246;SDS011;63844;50.042;19.224;2022-10-23T09:32:17;17.50;;;8.50;;
75246;SDS011;63844;50.042;19.224;2022-10-23T09:34:52;13.60;;;7.40;;
75246;SDS011;63844;50.042;19.224;2022-10-23T09:37:27;11.50;;;6.80;;
75246;SDS011;63844;50.042;19.224;2022-10-23T09:42:27;14.80;;;7.90;;
75246;SDS011;63844;50.042;19.224;2022-10-23T09:44:55;13.80;;;7.20;;
75246;SDS011;63844;50.042;19.224;2022-10-23T09:47:23;14.90;;;7.50;;
75246;SDS011;63844;50.042;19.224;2022-10-23T09:49:51;8.00;;;4.90;;
75246;SDS011;63844;50.042;19.224;2022-10-23T09:52:35;12.80;;;6.60;;
75246;SDS011;63844;50.042;19.224;2022-10-23T09:55:17;11.40;;;6.00;;
75246;SDS011;63844;50.042;19.224;2022-10-23T09:57:46;10.80;;;6.00;;
75246;SDS011;63844;50.042;19.224;2022-10-23T10:02:40;10.00;;;6.90;;
75246;SDS011;63844;50.042;19.224;2022-10-23T10:16:31;12.10;;;6.80;;
75246;SDS011;63844;50.042;19.224;2022-10-23T10:19:16;11.30;;;6.90;;
75246;SDS011;63844;50.042;19.224;2022-10-23T10:24:58;10.20;;;6.80;;
75246;SDS011;63844;50.042;19.224;2022-10-23T10:30:21;10.90;;;7.20;;
75246;SDS011;63844;50.042;19.224;2022-10-23T10:32:53;10.20;;;6.70;;
75246;SDS011;63844;50.042;19.224;2022-10-23T10:35:36;11.60;;;7.90;;
75246;SDS011;63844;50.042;19.224;2022-10-23T10:41:14;10.80;;;7.10;;
75246;SDS011;63844;50.042;19.224;2022-10-23T10:55:25;10.30;;;6.50;;
75246;SDS011;63844;50.042;19.224;2022-10-23T10:58:02;10.30;;;6.40;;
75246;SDS011;63844;50.042;19.224;2022-10-23T11:00:48;11.10;;;7.30;;
75246;SDS011;63844;50.042;19.224;2022-10-23T11:06:01;10.50;;;6.30;;
75246;SDS011;63844;50.042;19.224;2022-10-23T11:08:34;10.00;;;6.50;;
75246;SDS011;63844;50.042;19.224;2022-10-23T11:11:07;8.80;;;5.50;;
75246;SDS011;63844;50.042;19.224;2022-10-23T11:13:42;8.30;;;5.30;;
75246;SDS011;63844;50.042;19.224;2022-10-23T11:16:15;8.30;;;5.60;;
75246;SDS011;63844;50.042;19.224;2022-10-23T11:19:13;10.40;;;6.30;;
75246;SDS011;63844;50.042;19.224;2022-10-23T11:24:43;8.10;;;5.60;;
75246;SDS011;63844;50.042;19.224;2022-10-23T11:27:25;8.40;;;5.60;;
75246;SDS011;63844;50.042;19.224;2022-10-23T11:38:31;9.70;;;4.80;;
75246;SDS011;63844;50.042;19.224;2022-10-23T11:41:01;7.20;;;4.60;;
75246;SDS011;63844;50.042;19.224;2022-10-23T11:46:59;9.50;;;5.50;;
75246;SDS011;63844;50.042;19.224;2022-10-23T11:49:27;7.70;;;5.10;;
75246;SDS011;63844;50.042;19.224;2022-10-23T11:52:00;7.30;;;4.60;;
75246;SDS011;63844;50.042;19.224;2022-10-23T11:54:30;6.70;;;4.60;;
75246;SDS011;63844;50.042;19.224;2022-10-23T11:59:33;6.70;;;4.50;;
75246;SDS011;63844;50.042;19.224;2022-10-23T12:05:24;6.50;;;4.70;;
75246;SDS011;63844;50.042;19.224;2022-10-23T12:07:57;6.70;;;4.70;;
75246;SDS011;63844;50.042;19.224;2022-10-23T12:10:28;6.50;;;4.20;;
75246;SDS011;63844;50.042;19.224;2022-10-23T12:12:57;8.10;;;4.00;;
75246;SDS011;63844;50.042;19.224;2022-10-23T12:15:26;6.10;;;4.20;;
75246;SDS011;63844;50.042;19.224;2022-10-23T12:17:53;6.20;;;4.30;;
75246;SDS011;63844;50.042;19.224;2022-10-23T12:20:44;6.40;;;4.30;;
75246;SDS011;63844;50.042;19.224;2022-10-23T12:23:37;6.50;;;5.00;;
75246;SDS011;63844;50.042;19.224;2022-10-23T12:29:10;7.30;;;5.10;;
75246;SDS011;63844;50.042;19.224;2022-10-23T12:40:21;4.70;;;2.90;;
75246;SDS011;63844;50.042;19.224;2022-10-23T12:42:57;4.40;;;3.00;;
75246;SDS011;63844;50.042;19.224;2022-10-23T12:45:29;4.60;;;4.00;;
75246;SDS011;63844;50.042;19.224;2022-10-23T12:48:01;3.90;;;3.40;;
75246;SDS011;63844;50.042;19.224;2022-10-23T12:50:29;5.50;;;4.90;;
75246;SDS011;63844;50.042;19.224;2022-10-23T12:52:59;4.20;;;2.70;;
75246;SDS011;63844;50.042;19.224;2022-10-23T12:55:29;3.10;;;2.50;;
75246;SDS011;63844;50.042;19.224;2022-10-23T12:58:21;3.30;;;2.40;;
75246;SDS011;63844;50.042;19.224;2022-10-23T13:00:59;5.90;;;2.80;;
75246;SDS011;63844;50.042;19.224;2022-10-23T13:03:29;5.60;;;2.80;;
75246;SDS011;63844;50.042;19.224;2022-10-23T13:05:58;2.60;;;2.30;;
75246;SDS011;63844;50.042;19.224;2022-10-23T13:08:33;5.70;;;2.60;;
75246;SDS011;63844;50.042;19.224;2022-10-23T13:11:08;4.70;;;2.70;;
75246;SDS011;63844;50.042;19.224;2022-10-23T13:13:38;4.50;;;2.30;;
75246;SDS011;63844;50.042;19.224;2022-10-23T13:16:13;4.80;;;2.40;;
75246;SDS011;63844;50.042;19.224;2022-10-23T13:18:40;2.60;;;2.00;;
75246;SDS011;63844;50.042;19.224;2022-10-23T13:21:10;2.90;;;1.90;;
75246;SDS011;63844;50.042;19.224;2022-10-23T13:23:41;2.60;;;2.00;;
75246;SDS011;63844;50.042;19.224;2022-10-23T13:29:22;2.50;;;2.10;;
75246;SDS011;63844;50.042;19.224;2022-10-23T13:31:52;3.20;;;1.90;;
75246;SDS011;63844;50.042;19.224;2022-10-23T13:34:29;3.00;;;1.90;;
75246;SDS011;63844;50.042;19.224;2022-10-23T13:37:41;2.60;;;2.20;;
75246;SDS011;63844;50.042;19.224;2022-10-23T13:39:57;3.00;;;2.40;;
75246;SDS011;63844;50.042;19.224;2022-10-23T13:42:47;5.10;;;2.20;;
75246;SDS011;63844;50.042;19.224;2022-10-23T13:45:17;3.40;;;2.10;;
75246;SDS011;63844;50.042;19.224;2022-10-23T13:47:45;3.00;;;1.90;;
75246;SDS011;63844;50.042;19.224;2022-10-23T13:52:38;3.00;;;2.40;;
75246;SDS011;63844;50.042;19.224;2022-10-23T13:55:21;3.90;;;2.30;;
75246;SDS011;63844;50.042;19.224;2022-10-23T13:57:49;6.20;;;2.70;;
75246;SDS011;63844;50.042;19.224;2022-10-23T14:00:16;2.70;;;2.10;;
75246;SDS011;63844;50.042;19.224;2022-10-23T14:02:43;4.90;;;2.50;;
75246;SDS011;63844;50.042;19.224;2022-10-23T14:05:09;2.80;;;1.90;;
75246;SDS011;63844;50.042;19.224;2022-10-23T14:07:36;3.90;;;2.20;;
75246;SDS011;63844;50.042;19.224;2022-10-23T14:12:29;3.50;;;2.40;;
75246;SDS011;63844;50.042;19.224;2022-10-23T14:14:56;6.00;;;3.50;;
75246;SDS011;63844;50.042;19.224;2022-10-23T14:17:22;11.30;;;9.30;;
75246;SDS011;63844;50.042;19.224;2022-10-23T14:19:48;10.90;;;6.20;;
75246;SDS011;63844;50.042;19.224;2022-10-23T14:22:15;10.30;;;6.10;;
75246;SDS011;63844;50.042;19.224;2022-10-23T14:27:07;7.60;;;5.10;;
75246;SDS011;63844;50.042;19.224;2022-10-23T14:29:34;7.50;;;5.00;;
75246;SDS011;63844;50.042;19.224;2022-10-23T14:32:00;6.00;;;4.80;;
75246;SDS011;63844;50.042;19.224;2022-10-23T14:34:26;4.60;;;3.40;;
75246;SDS011;63844;50.042;19.224;2022-10-23T14:36:53;3.80;;;3.30;;
75246;SDS011;63844;50.042;19.224;2022-10-23T14:39:19;5.50;;;3.60;;
75246;SDS011;63844;50.042;19.224;2022-10-23T14:41:45;4.80;;;3.00;;
75246;SDS011;63844;50.042;19.224;2022-10-23T14:44:12;5.30;;;3.00;;
75246;SDS011;63844;50.042;19.224;2022-10-23T14:46:38;6.80;;;2.70;;
75246;SDS011;63844;50.042;19.224;2022-10-23T14:49:05;6.40;;;4.70;;
75246;SDS011;63844;50.042;19.224;2022-10-23T14:51:31;4.70;;;3.40;;
75246;SDS011;63844;50.042;19.224;2022-10-23T14:53:59;5.40;;;3.40;;
75246;SDS011;63844;50.042;19.224;2022-10-23T14:56:31;6.50;;;4.00;;
75246;SDS011;63844;50.042;19.224;2022-10-23T14:58:59;8.20;;;4.60;;
75246;SDS011;63844;50.042;19.224;2022-10-23T15:01:33;27.50;;;7.10;;
75246;SDS011;63844;50.042;19.224;2022-10-23T15:04:02;5.30;;;3.10;;
75246;SDS011;63844;50.042;19.224;2022-10-23T15:06:29;5.70;;;3.00;;
75246;SDS011;63844;50.042;19.224;2022-10-23T15:08:57;5.40;;;2.80;;
75246;SDS011;63844;50.042;19.224;2022-10-23T15:11:24;4.90;;;2.40;;
75246;SDS011;63844;50.042;19.224;2022-10-23T15:13:51;5.50;;;2.40;;
75246;SDS011;63844;50.042;19.224;2022-10-23T15:16:20;5.60;;;2.90;;
75246;SDS011;63844;50.042;19.224;2022-10-23T15:18:47;5.30;;;2.60;;
75246;SDS011;63844;50.042;19.224;2022-10-23T15:21:14;7.30;;;4.30;;
75246;SDS011;63844;50.042;19.224;2022-10-23T15:23:43;16.80;;;10.80;;
75246;SDS011;63844;50.042;19.224;2022-10-23T15:26:13;18.70;;;10.80;;
75246;SDS011;63844;50.042;19.224;2022-10-23T15:28:46;15.50;;;9.40;;
75246;SDS011;63844;50.042;19.224;2022-10-23T15:31:23;16.60;;;10.40;;
75246;SDS011;63844;50.042;19.224;2022-10-23T15:34:06;14.30;;;9.50;;
75246;SDS011;63844;50.042;19.224;2022-10-23T15:36:35;15.20;;;10.30;;
75246;SDS011;63844;50.042;19.224;2022-10-23T15:39:03;14.00;;;8.30;;
75246;SDS011;63844;50.042;19.224;2022-10-23T15:41:33;13.90;;;9.00;;
75246;SDS011;63844;50.042;19.224;2022-10-23T15:44:03;11.60;;;7.90;;
75246;SDS011;63844;50.042;19.224;2022-10-23T15:46:31;9.80;;;6.50;;
75246;SDS011;63844;50.042;19.224;2022-10-23T15:48:58;10.20;;;6.20;;
75246;SDS011;63844;50.042;19.224;2022-10-23T15:51:25;11.70;;;7.20;;
75246;SDS011;63844;50.042;19.224;2022-10-23T15:53:52;9.60;;;5.20;;
75246;SDS011;63844;50.042;19.224;2022-10-23T15:56:19;9.50;;;4.90;;
75246;SDS011;63844;50.042;19.224;2022-10-23T15:58:45;8.70;;;4.90;;
75246;SDS011;63844;50.042;19.224;2022-10-23T16:01:11;10.30;;;5.30;;
75246;SDS011;63844;50.042;19.224;2022-10-23T16:03:38;9.20;;;5.20;;
75246;SDS011;63844;50.042;19.224;2022-10-23T16:06:08;10.20;;;5.70;;
75246;SDS011;63844;50.042;19.224;2022-10-23T16:08:36;8.90;;;5.30;;
75246;SDS011;63844;50.042;19.224;2022-10-23T16:11:04;7.70;;;5.00;;
75246;SDS011;63844;50.042;19.224;2022-10-23T16:13:46;7.80;;;5.20;;
75246;SDS011;63844;50.042;19.224;2022-10-23T16:16:13;9.10;;;5.60;;
75246;SDS011;63844;50.042;19.224;2022-10-23T16:18:40;9.80;;;5.70;;
75246;SDS011;63844;50.042;19.224;2022-10-23T16:21:06;20.40;;;10.50;;
75246;SDS011;63844;50.042;19.224;2022-10-23T16:23:40;12.70;;;7.10;;
75246;SDS011;63844;50.042;19.224;2022-10-23T16:26:07;12.40;;;6.70;;
75246;SDS011;63844;50.042;19.224;2022-10-23T16:28:33;9.40;;;5.60;;
75246;SDS011;63844;50.042;19.224;2022-10-23T16:30:59;8.30;;;5.30;;
75246;SDS011;63844;50.042;19.224;2022-10-23T16:33:26;10.70;;;6.70;;
75246;SDS011;63844;50.042;19.224;2022-10-23T16:38:18;12.20;;;7.00;;
75246;SDS011;63844;50.042;19.224;2022-10-23T16:40:49;13.40;;;7.90;;
75246;SDS011;63844;50.042;19.224;2022-10-23T16:43:16;14.10;;;7.10;;
75246;SDS011;63844;50.042;19.224;2022-10-23T16:45:43;14.10;;;8.50;;
75246;SDS011;63844;50.042;19.224;2022-10-23T16:48:09;14.40;;;7.90;;
75246;SDS011;63844;50.042;19.224;2022-10-23T16:50:39;15.40;;;8.70;;
75246;SDS011;63844;50.042;19.224;2022-10-23T16:53:06;15.10;;;10.40;;
75246;SDS011;63844;50.042;19.224;2022-10-23T16:55:32;14.50;;;9.10;;